Weather at Hoffman's Black Mountain Aerodrome

Public forecast

Using degrees Fahrenheit for public forecast. Weather courtesy of forecast.io.

Closest aviation weather report (METAR) to Hoffman's Black Mountain Aerodrome

Closest report is Cheboygan County Airport, 11.5 nm (21.3 km) NW. Retrieved 2021/10/25 17:35 UTC (0 seconds ago):

KSLH 251735Z AUTO 04012G19KT 10SM BKN028 OVC035 09/04 A3004 RMK AO2

Closest aviation forecast (TAF) to Hoffman's Black Mountain Aerodrome

Closest forecast is Pellston Regional Airport of Emmet County Airport, 20.7 nm (38.3 km) W. Retrieved 2021/10/25 12:40 UTC (5 hours ago):

TAF KPLN 251138Z 2512/2612 05011KT P6SM OVC035 FM251500 05012G23KT P6SM OVC022 FM252200 04009KT P6SM OVC035 FM260000 03008KT P6SM BKN060